Time;durP1;ratioP1;P1;durP2;ratioP2;P2;SDS_P1;SDS_P2;PMS_P1;PMS_P2;Temp;Humidity;BMP_temperature;BMP_pressure;BME280_temperature;BME280_humidity;BME280_pressure;Samples;Min_cycle;Max_cycle;Signal;HPM_P1;HPM_P2
2022/01/29 00:00:37;;;;;;;21.67;7.30;;;8.60;99.90;;;;;;5044175;28;20068;-80
2022/01/29 00:03:03;;;;;;;26.50;7.18;;;7.10;99.90;;;;;;5025450;28;20102;-80
2022/01/29 00:05:29;;;;;;;20.80;6.97;;;7.10;99.90;;;;;;5044370;28;20127;-80
2022/01/29 00:07:55;;;;;;;27.35;6.47;;;7.10;99.90;;;;;;5043305;28;20041;-79
2022/01/29 00:10:21;;;;;;;20.98;7.13;;;7.10;99.90;;;;;;5044047;28;20543;-80
2022/01/29 00:12:47;;;;;;;22.40;7.38;;;7.10;99.90;;;;;;5043138;28;20064;-80
2022/01/29 00:15:12;;;;;;;23.52;6.00;;;8.40;99.90;;;;;;5043579;28;20136;-80
2022/01/29 00:17:39;;;;;;;18.55;6.55;;;8.20;99.90;;;;;;5042196;28;20120;-80
2022/01/29 00:20:05;;;;;;;19.92;6.95;;;7.20;99.90;;;;;;5043310;28;20052;-79
2022/01/29 00:22:31;;;;;;;21.30;6.30;;;7.20;99.90;;;;;;5044031;28;20037;-80
2022/01/29 00:24:58;;;;;;;17.65;6.25;;;7.20;99.90;;;;;;5041524;28;20183;-80
2022/01/29 00:27:26;;;;;;;25.38;7.25;;;7.20;99.90;;;;;;5046489;28;20517;-80
2022/01/29 00:29:52;;;;;;;23.83;6.63;;;7.70;99.90;;;;;;5046865;28;20048;-79
2022/01/29 00:32:17;;;;;;;23.67;6.65;;;7.40;99.90;;;;;;5047931;28;20060;-80
2022/01/29 00:34:43;;;;;;;18.52;6.38;;;8.70;99.90;;;;;;5047985;28;20500;-80
2022/01/29 00:37:09;;;;;;;22.63;6.43;;;7.20;99.90;;;;;;5045611;28;20049;-80
2022/01/29 00:39:35;;;;;;;21.42;6.93;;;7.20;99.90;;;;;;5030367;28;20045;-80
2022/01/29 00:42:01;;;;;;;20.92;7.05;;;7.20;99.90;;;;;;5047130;28;20049;-80
2022/01/29 00:44:26;;;;;;;18.50;6.75;;;7.30;99.90;;;;;;5048009;28;20118;-80
2022/01/29 00:46:52;;;;;;;21.95;7.20;;;7.20;99.90;;;;;;5047282;28;20056;-80
2022/01/29 00:49:18;;;;;;;19.63;7.18;;;8.70;99.90;;;;;;5046984;28;20154;-79
2022/01/29 00:51:44;;;;;;;12.05;6.47;;;8.00;99.90;;;;;;5047039;28;20045;-79
2022/01/29 00:54:09;;;;;;;27.83;8.13;;;8.30;99.90;;;;;;5047292;28;20043;-80
2022/01/29 00:56:35;;;;;;;19.15;6.80;;;8.70;99.90;;;;;;5047783;28;20071;-79
2022/01/29 00:59:01;;;;;;;16.70;6.88;;;8.10;99.90;;;;;;5046712;28;20537;-79
2022/01/29 01:01:26;;;;;;;21.30;7.53;;;8.00;99.90;;;;;;5047410;28;20631;-79
2022/01/29 01:03:52;;;;;;;28.48;7.70;;;7.30;99.90;;;;;;5046984;28;20525;-80
2022/01/29 01:06:19;;;;;;;17.83;6.78;;;7.30;99.90;;;;;;5047073;28;20073;-80
2022/01/29 01:08:45;;;;;;;23.13;7.60;;;7.30;99.90;;;;;;5028703;28;20083;-80
2022/01/29 01:11:11;;;;;;;18.73;8.32;;;7.30;99.90;;;;;;5046615;28;20045;-79
2022/01/29 01:13:37;;;;;;;23.10;7.70;;;7.30;99.90;;;;;;5047375;28;20559;-80
2022/01/29 01:16:03;;;;;;;20.38;8.30;;;7.30;99.90;;;;;;5046270;28;20139;-80
2022/01/29 01:18:29;;;;;;;21.85;7.60;;;7.40;99.90;;;;;;5047581;28;20040;-80
2022/01/29 01:20:56;;;;;;;17.73;7.72;;;7.40;99.90;;;;;;5044989;28;20408;-80
2022/01/29 01:23:22;;;;;;;17.10;7.57;;;8.70;99.90;;;;;;5046948;28;20640;-80
2022/01/29 01:25:48;;;;;;;20.77;7.63;;;8.80;99.90;;;;;;5046455;28;20120;-80
2022/01/29 01:28:15;;;;;;;20.30;7.40;;;7.50;99.90;;;;;;5044927;28;20052;-80
2022/01/29 01:30:41;;;;;;;26.80;8.13;;;6.90;99.90;;;;;;5047120;28;20512;-80
2022/01/29 01:33:07;;;;;;;19.58;7.65;;;7.40;99.90;;;;;;5046054;28;20110;-80
2022/01/29 01:35:47;;;;;;;26.92;8.02;;;8.90;99.90;;;;;;5046771;28;20094;-79
2022/01/29 01:40:45;;;;;;;22.42;8.40;;;7.70;99.90;;;;;;5046596;28;20102;-80
2022/01/29 01:43:11;;;;;;;30.80;8.10;;;8.90;99.90;;;;;;5045263;28;20448;-78
2022/01/29 01:45:37;;;;;;;23.15;8.15;;;9.00;99.90;;;;;;5046004;28;20060;-78
2022/01/29 01:48:05;;;;;;;17.65;8.18;;;7.60;99.90;;;;;;5046336;28;20571;-78
2022/01/29 01:50:31;;;;;;;22.65;8.65;;;7.60;99.90;;;;;;5026574;28;20068;-79
2022/01/29 01:52:58;;;;;;;26.27;8.57;;;8.40;99.90;;;;;;5045179;28;20068;-79
2022/01/29 01:55:24;;;;;;;26.88;9.15;;;7.60;99.90;;;;;;5044384;28;20041;-79
2022/01/29 01:57:50;;;;;;;25.63;8.43;;;7.60;99.90;;;;;;5045150;28;20041;-79
2022/01/29 02:00:16;;;;;;;30.60;8.45;;;8.10;99.90;;;;;;5044839;28;20049;-79
2022/01/29 02:02:42;;;;;;;20.92;8.05;;;7.60;99.90;;;;;;5044335;28;20045;-79
2022/01/29 02:05:09;;;;;;;30.58;8.82;;;7.60;99.90;;;;;;5045074;28;20047;-79
2022/01/29 02:07:35;;;;;;;21.08;8.48;;;8.20;99.90;;;;;;5044174;28;20552;-79
2022/01/29 02:10:09;;;;;;;25.75;8.88;;;7.70;99.90;;;;;;5044732;28;20045;-79
2022/01/29 02:12:57;;;;;;;30.35;9.25;;;7.70;99.90;;;;;;5044103;28;20417;-79
2022/01/29 02:15:23;;;;;;;18.67;7.38;;;8.70;99.90;;;;;;5042990;28;20044;-79
2022/01/29 02:17:50;;;;;;;16.17;7.80;;;7.70;99.90;;;;;;5045136;28;20068;-79
2022/01/29 02:20:22;;;;;;;20.73;7.57;;;7.70;99.90;;;;;;5043975;28;20040;-79
2022/01/29 02:22:49;;;;;;;31.13;8.30;;;7.80;99.90;;;;;;5044757;28;20112;-79
2022/01/29 02:25:36;;;;;;;19.42;7.82;;;7.80;99.90;;;;;;5043868;28;20572;-79
2022/01/29 02:28:16;;;;;;;18.15;7.88;;;7.90;99.90;;;;;;5044545;28;20053;-79
2022/01/29 02:30:49;;;;;;;31.48;7.68;;;8.30;99.90;;;;;;5044923;28;20129;-79
2022/01/29 02:33:17;;;;;;;19.30;7.22;;;7.90;99.90;;;;;;5042815;28;20045;-79
2022/01/29 02:35:45;;;;;;;18.60;6.95;;;7.90;99.90;;;;;;5044723;28;20055;-79
2022/01/29 02:38:13;;;;;;;25.45;7.72;;;9.20;99.90;;;;;;5044011;28;20045;-79
2022/01/29 02:40:46;;;;;;;21.25;7.05;;;7.90;99.90;;;;;;5026260;28;20041;-80
2022/01/29 02:43:18;;;;;;;24.35;8.15;;;8.00;99.90;;;;;;5027458;28;20132;-80
2022/01/29 02:45:46;;;;;;;21.17;6.75;;;9.00;99.90;;;;;;5043848;28;20041;-80
2022/01/29 02:48:12;;;;;;;21.63;7.10;;;9.20;99.90;;;;;;5004608;28;1093696;-80
2022/01/29 02:50:39;;;;;;;25.33;7.55;;;8.00;99.90;;;;;;5044040;28;20045;-79
2022/01/29 02:53:05;;;;;;;14.38;6.90;;;9.10;99.90;;;;;;5045512;28;20045;-79
2022/01/29 02:55:31;;;;;;;13.10;6.57;;;8.50;99.90;;;;;;5044743;28;20052;-80
2022/01/29 02:57:57;;;;;;;22.35;7.07;;;9.10;99.90;;;;;;5045093;28;20037;-79
2022/01/29 03:00:23;;;;;;;22.65;7.10;;;9.30;99.90;;;;;;5044999;28;20045;-79
2022/01/29 03:02:49;;;;;;;17.30;7.13;;;9.20;99.90;;;;;;5044385;28;20145;-79
2022/01/29 03:05:14;;;;;;;18.60;6.95;;;9.10;99.90;;;;;;5045351;28;20064;-79
2022/01/29 03:07:40;;;;;;;28.73;7.68;;;8.30;99.90;;;;;;5044324;28;20048;-79
2022/01/29 03:10:07;;;;;;;20.02;7.70;;;8.10;99.90;;;;;;5044845;28;20490;-79
2022/01/29 03:12:34;;;;;;;30.73;7.47;;;8.10;99.90;;;;;;5044420;28;20052;-80
2022/01/29 03:14:59;;;;;;;23.38;7.47;;;8.10;99.90;;;;;;5043582;28;20193;-80
2022/01/29 03:17:25;;;;;;;26.48;7.93;;;9.60;99.90;;;;;;5043444;28;20048;-80
2022/01/29 03:19:52;;;;;;;25.15;8.10;;;8.10;99.90;;;;;;5042998;28;20044;-79
2022/01/29 03:22:18;;;;;;;19.98;7.70;;;9.50;99.90;;;;;;5044653;28;20045;-79
2022/01/29 03:24:44;;;;;;;22.85;7.43;;;9.50;99.90;;;;;;5043592;28;20052;-80
2022/01/29 03:27:10;;;;;;;24.27;7.40;;;9.20;99.90;;;;;;5044399;28;20056;-80
2022/01/29 03:29:36;;;;;;;20.40;8.40;;;9.30;99.90;;;;;;5043493;28;20049;-79
2022/01/29 03:32:02;;;;;;;29.38;8.70;;;8.90;99.90;;;;;;5043062;28;20075;-80
2022/01/29 03:34:28;;;;;;;21.20;7.10;;;8.20;99.90;;;;;;5044333;28;20046;-80
2022/01/29 03:36:56;;;;;;;21.58;7.95;;;9.60;99.90;;;;;;5043815;28;20102;-79
2022/01/29 03:39:24;;;;;;;24.77;7.57;;;9.10;99.90;;;;;;5044772;28;20053;-80
2022/01/29 03:41:49;;;;;;;24.40;7.93;;;9.70;99.90;;;;;;5043679;28;20044;-79
2022/01/29 03:44:16;;;;;;;19.35;7.63;;;8.20;99.90;;;;;;5042732;28;20045;-79
2022/01/29 03:46:41;;;;;;;21.08;8.63;;;9.40;99.90;;;;;;5043667;28;20406;-79
2022/01/29 03:49:07;;;;;;;19.67;8.02;;;8.30;99.90;;;;;;5043667;28;20053;-79
2022/01/29 03:51:33;;;;;;;21.13;7.22;;;9.70;99.90;;;;;;5043959;28;20041;-79
2022/01/29 03:53:58;;;;;;;21.38;8.20;;;8.30;99.90;;;;;;5025391;28;20089;-79
2022/01/29 03:56:24;;;;;;;24.40;8.13;;;9.00;99.90;;;;;;5043050;28;20088;-79
2022/01/29 03:58:50;;;;;;;21.95;7.53;;;7.60;99.90;;;;;;5041940;28;20056;-79
2022/01/29 04:01:16;;;;;;;18.42;7.90;;;8.70;99.90;;;;;;5043983;28;20041;-79
2022/01/29 04:03:42;;;;;;;23.58;7.68;;;8.40;99.90;;;;;;5041889;28;20037;-79
2022/01/29 04:06:07;;;;;;;25.92;8.40;;;9.80;99.90;;;;;;5043769;28;20492;-79
2022/01/29 04:08:39;;;;;;;17.75;7.97;;;9.80;99.90;;;;;;5043629;28;20049;-79
2022/01/29 04:11:06;;;;;;;15.63;6.13;;;8.90;99.90;;;;;;5043523;28;20099;-79
2022/01/29 04:13:32;;;;;;;17.20;7.35;;;8.30;99.90;;;;;;5043917;28;20123;-79
2022/01/29 04:15:58;;;;;;;22.85;8.85;;;9.60;99.90;;;;;;5043092;28;20124;-79
2022/01/29 04:18:23;;;;;;;19.90;8.13;;;8.30;99.90;;;;;;5042607;28;20264;-79
2022/01/29 04:20:50;;;;;;;19.20;9.00;;;8.70;99.90;;;;;;5043034;28;20041;-79
2022/01/29 04:23:16;;;;;;;20.80;7.68;;;9.60;99.90;;;;;;5026155;28;20068;-79
2022/01/29 04:25:42;;;;;;;19.55;8.60;;;8.50;99.90;;;;;;5043934;28;20069;-79
2022/01/29 04:28:10;;;;;;;23.95;8.50;;;9.10;99.90;;;;;;5043411;28;20041;-79
2022/01/29 04:30:45;;;;;;;17.48;8.25;;;8.40;99.90;;;;;;5043651;28;20049;-79
2022/01/29 04:35:51;;;;;;;19.88;8.60;;;9.80;99.90;;;;;;5044297;28;20045;-79
2022/01/29 04:38:18;;;;;;;16.25;7.95;;;8.50;99.90;;;;;;5042915;28;20045;-79
2022/01/29 04:40:44;;;;;;;25.00;9.45;;;8.40;99.90;;;;;;5041902;28;20060;-80
2022/01/29 04:43:09;;;;;;;20.02;8.88;;;9.30;99.90;;;;;;5043680;28;20041;-79
2022/01/29 04:45:35;;;;;;;23.98;9.30;;;8.50;99.90;;;;;;5042971;28;20041;-79
2022/01/29 04:48:01;;;;;;;18.65;7.57;;;8.70;99.90;;;;;;5043497;28;20072;-79
2022/01/29 04:50:27;;;;;;;22.75;8.50;;;8.50;99.90;;;;;;5041331;28;20045;-79
2022/01/29 04:52:53;;;;;;;22.48;9.65;;;8.70;99.90;;;;;;5042101;28;20072;-79
2022/01/29 04:55:19;;;;;;;19.80;8.07;;;9.80;99.90;;;;;;5040904;28;20490;-79
2022/01/29 04:57:45;;;;;;;17.17;8.48;;;8.50;99.90;;;;;;5043441;28;20052;-80
2022/01/29 05:00:19;;;;;;;19.90;9.23;;;9.90;99.90;;;;;;5043761;28;20544;-79
2022/01/29 05:02:47;;;;;;;25.52;8.20;;;8.50;99.90;;;;;;5042866;28;20092;-79
2022/01/29 05:05:12;;;;;;;18.98;7.80;;;9.90;99.90;;;;;;5043370;28;20087;-79
2022/01/29 05:07:38;;;;;;;24.27;9.00;;;9.70;99.90;;;;;;5042432;28;20567;-79
2022/01/29 05:10:04;;;;;;;25.75;8.50;;;8.60;99.90;;;;;;5043373;28;20045;-79
2022/01/29 05:12:41;;;;;;;20.15;9.18;;;8.60;99.90;;;;;;5044063;28;20120;-79
2022/01/29 05:15:23;;;;;;;22.08;8.07;;;8.90;99.90;;;;;;5045682;28;20413;-79
2022/01/29 05:28:46;;;;;;;18.70;7.15;;;9.50;99.90;;;;;;5044626;28;20136;-79
2022/01/29 05:31:12;;;;;;;15.80;8.05;;;9.20;99.90;;;;;;5046614;28;20509;-79
2022/01/29 05:33:38;;;;;;;27.17;8.07;;;9.60;99.90;;;;;;5045746;28;20037;-79
2022/01/29 05:36:04;;;;;;;22.52;9.07;;;9.20;99.90;;;;;;5044974;28;20482;-79
2022/01/29 05:38:29;;;;;;;15.15;7.90;;;8.60;99.90;;;;;;5046374;28;20079;-79
2022/01/29 05:40:56;;;;;;;19.60;7.47;;;9.20;99.90;;;;;;5046493;28;20041;-79
2022/01/29 05:43:22;;;;;;;17.52;7.97;;;8.60;99.90;;;;;;5046797;28;20394;-79
2022/01/29 05:45:48;;;;;;;17.55;8.10;;;8.60;99.90;;;;;;5045906;28;20083;-79
2022/01/29 05:48:14;;;;;;;18.35;8.93;;;9.60;99.90;;;;;;5044438;28;20064;-80
2022/01/29 05:50:39;;;;;;;15.50;8.27;;;9.60;99.90;;;;;;5043944;28;20053;-79
2022/01/29 05:53:05;;;;;;;16.60;7.47;;;9.90;99.90;;;;;;5046450;28;20044;-79
2022/01/29 05:55:31;;;;;;;17.35;9.13;;;9.40;99.90;;;;;;5045654;28;20052;-79
2022/01/29 05:57:57;;;;;;;20.20;8.77;;;9.10;99.90;;;;;;5044520;28;20052;-79
2022/01/29 06:00:23;;;;;;;21.58;8.27;;;9.20;99.90;;;;;;5046360;28;20048;-79
2022/01/29 06:03:04;;;;;;;21.23;8.50;;;8.60;99.90;;;;;;5044601;28;20052;-79
2022/01/29 06:05:30;;;;;;;16.58;7.45;;;9.40;99.90;;;;;;5046187;28;20041;-79
2022/01/29 06:07:56;;;;;;;28.88;8.75;;;10.00;99.90;;;;;;5043374;28;20045;-79
2022/01/29 06:10:22;;;;;;;22.08;7.90;;;8.70;99.90;;;;;;5045912;28;20045;-79
2022/01/29 06:13:12;;;;;;;19.63;8.45;;;8.70;99.90;;;;;;5044312;28;20503;-79
2022/01/29 06:15:43;;;;;;;16.13;8.05;;;8.70;99.90;;;;;;5044226;28;20051;-79
2022/01/29 06:18:12;;;;;;;22.08;8.48;;;10.00;99.90;;;;;;5045859;28;20504;-79
2022/01/29 06:20:39;;;;;;;22.10;8.98;;;8.70;99.90;;;;;;5045133;28;20042;-79
2022/01/29 06:23:05;;;;;;;16.90;8.35;;;9.00;99.90;;;;;;5045388;28;20076;-79
2022/01/29 06:25:34;;;;;;;15.27;7.90;;;10.10;99.90;;;;;;5044968;28;20128;-79
2022/01/29 06:27:59;;;;;;;14.18;7.50;;;9.50;99.90;;;;;;5044126;28;20132;-79
2022/01/29 06:30:25;;;;;;;16.27;8.23;;;10.30;99.90;;;;;;5045654;28;20402;-79
2022/01/29 06:32:51;;;;;;;18.58;8.18;;;8.80;99.90;;;;;;5043374;28;20123;-79
2022/01/29 06:35:16;;;;;;;19.02;8.02;;;9.70;99.90;;;;;;5045921;28;20056;-79
2022/01/29 06:37:42;;;;;;;18.02;8.68;;;8.80;99.90;;;;;;5044379;28;20063;-79
2022/01/29 06:40:09;;;;;;;18.25;8.02;;;9.10;99.90;;;;;;5045522;28;20486;-79
2022/01/29 06:42:35;;;;;;;20.35;7.50;;;8.80;99.90;;;;;;5043459;28;20098;-79
2022/01/29 06:45:01;;;;;;;12.55;7.25;;;9.20;99.90;;;;;;5045595;28;20041;-79
2022/01/29 06:47:27;;;;;;;19.10;7.90;;;8.80;99.90;;;;;;5045373;28;20048;-79
2022/01/29 06:49:52;;;;;;;20.25;8.50;;;8.80;99.90;;;;;;5042806;28;20061;-79
2022/01/29 06:52:18;;;;;;;17.33;7.57;;;9.80;99.90;;;;;;5044872;28;20128;-79
2022/01/29 06:54:44;;;;;;;12.88;7.68;;;8.80;99.90;;;;;;5043915;28;20136;-79
2022/01/29 06:57:10;;;;;;;15.50;7.05;;;10.40;99.90;;;;;;5043903;28;20041;-79
2022/01/29 06:59:35;;;;;;;14.00;7.60;;;10.20;99.90;;;;;;5044562;28;20041;-79
2022/01/29 07:02:01;;;;;;;13.10;7.22;;;8.80;99.90;;;;;;5045098;28;20073;-79
2022/01/29 07:04:27;;;;;;;20.42;8.35;;;8.80;99.90;;;;;;5045025;28;20162;-79
2022/01/29 07:06:53;;;;;;;21.42;7.63;;;9.40;99.90;;;;;;5044504;28;20086;-79
2022/01/29 07:09:18;;;;;;;13.90;7.63;;;10.10;99.90;;;;;;5044862;28;20549;-79
2022/01/29 07:11:45;;;;;;;16.02;7.68;;;8.80;99.90;;;;;;5043870;28;20185;-79
2022/01/29 07:14:16;;;;;;;14.30;7.90;;;8.80;99.90;;;;;;5044735;28;20041;-79
2022/01/29 07:16:43;;;;;;;16.38;8.20;;;8.40;99.90;;;;;;5044192;28;20048;-80
2022/01/29 07:19:10;;;;;;;17.67;8.23;;;8.80;99.90;;;;;;5044555;28;20115;-79
2022/01/29 07:21:36;;;;;;;15.18;7.00;;;10.00;99.90;;;;;;5044814;28;20091;-79
2022/01/29 07:24:02;;;;;;;22.40;8.25;;;9.70;99.90;;;;;;5043985;28;20052;-79
2022/01/29 07:26:28;;;;;;;19.20;8.13;;;8.80;99.90;;;;;;5044723;28;20085;-80
2022/01/29 07:28:53;;;;;;;14.90;7.18;;;8.80;99.90;;;;;;5043080;28;20503;-79
2022/01/29 07:31:20;;;;;;;14.52;8.38;;;8.80;99.90;;;;;;5044273;28;20037;-79
2022/01/29 07:33:46;;;;;;;14.48;7.30;;;8.80;99.90;;;;;;5042945;28;20520;-80
2022/01/29 07:36:11;;;;;;;14.30;7.30;;;10.10;99.90;;;;;;5043403;28;20049;-80
2022/01/29 07:38:37;;;;;;;13.40;6.80;;;9.80;99.90;;;;;;5043737;28;20145;-79
2022/01/29 07:41:03;;;;;;;11.75;6.80;;;8.80;99.90;;;;;;5043395;28;20055;-80
2022/01/29 07:43:29;;;;;;;19.27;7.15;;;9.30;99.90;;;;;;5044210;28;20439;-80
2022/01/29 07:45:54;;;;;;;12.23;7.82;;;8.80;99.90;;;;;;5042771;28;20037;-80
2022/01/29 07:48:20;;;;;;;14.00;6.38;;;8.80;99.90;;;;;;5041743;28;20087;-80
2022/01/29 07:50:46;;;;;;;12.48;6.93;;;9.30;99.90;;;;;;5042341;28;20045;-80
2022/01/29 07:53:12;;;;;;;10.98;6.88;;;9.40;99.90;;;;;;5043119;28;20044;-79
2022/01/29 07:55:37;;;;;;;15.00;7.13;;;8.80;99.90;;;;;;5041797;28;20080;-80
2022/01/29 07:58:07;;;;;;;14.55;6.57;;;9.20;99.90;;;;;;5042970;28;20040;-79
2022/01/29 08:00:33;;;;;;;13.30;6.63;;;9.00;99.90;;;;;;5043550;28;20408;-79
2022/01/29 08:02:59;;;;;;;11.25;6.15;;;9.10;99.90;;;;;;5041023;28;20045;-78
2022/01/29 08:05:26;;;;;;;13.95;6.07;;;10.00;99.90;;;;;;5043362;28;20100;-80
2022/01/29 08:07:51;;;;;;;13.95;6.55;;;8.80;99.90;;;;;;5041228;28;20040;-80
2022/01/29 08:10:17;;;;;;;11.95;6.97;;;9.30;99.90;;;;;;5042141;28;20434;-81
2022/01/29 08:12:43;;;;;;;11.98;6.38;;;8.80;99.90;;;;;;5043628;28;20041;-79
2022/01/29 08:15:09;;;;;;;10.77;6.78;;;9.20;99.90;;;;;;5043527;28;20060;-80
2022/01/29 08:17:35;;;;;;;15.68;6.20;;;8.80;99.90;;;;;;5044000;28;20125;-79
2022/01/29 08:20:01;;;;;;;14.50;5.80;;;8.80;99.90;;;;;;5042779;28;20029;-79
2022/01/29 08:22:27;;;;;;;11.27;5.28;;;9.20;99.90;;;;;;5044088;28;20064;-78
2022/01/29 08:24:53;;;;;;;12.90;5.65;;;10.40;99.90;;;;;;5042050;28;20413;-79
2022/01/29 08:27:19;;;;;;;11.00;5.57;;;9.50;99.90;;;;;;5043957;28;20130;-79
2022/01/29 08:29:45;;;;;;;9.90;5.15;;;9.50;99.90;;;;;;5041706;28;20056;-79
2022/01/29 08:32:11;;;;;;;10.07;5.07;;;9.60;99.90;;;;;;5043168;28;20041;-78
2022/01/29 08:34:39;;;;;;;9.82;4.93;;;9.10;99.90;;;;;;5043754;28;20102;-81
2022/01/29 08:37:05;;;;;;;12.40;5.18;;;9.10;99.90;;;;;;5043265;28;20132;-79
2022/01/29 08:39:31;;;;;;;9.75;5.18;;;9.10;99.90;;;;;;5043821;28;20124;-79
2022/01/29 08:41:58;;;;;;;13.07;4.60;;;9.10;99.90;;;;;;5042995;28;20053;-79
2022/01/29 08:44:24;;;;;;;12.95;4.75;;;9.20;99.90;;;;;;5042605;28;20049;-81
2022/01/29 08:46:51;;;;;;;9.82;4.30;;;9.20;99.90;;;;;;5044272;28;20045;-81
2022/01/29 08:49:17;;;;;;;10.57;4.22;;;8.90;99.90;;;;;;5047834;28;20099;-79
2022/01/29 08:51:42;;;;;;;9.85;4.72;;;9.20;99.90;;;;;;5047807;28;20045;-79
2022/01/29 08:54:08;;;;;;;10.80;4.35;;;10.20;99.90;;;;;;5045478;28;20041;-78
2022/01/29 08:56:34;;;;;;;11.20;3.75;;;9.30;99.90;;;;;;5047860;28;20045;-79
2022/01/29 08:59:00;;;;;;;9.02;3.92;;;9.40;99.90;;;;;;5046908;28;20040;-77
2022/01/29 09:01:26;;;;;;;8.13;3.50;;;9.40;99.90;;;;;;5046791;28;20090;-76
2022/01/29 09:03:52;;;;;;;8.75;3.70;;;9.50;99.90;;;;;;5046954;28;20387;-76
2022/01/29 09:06:19;;;;;;;7.38;3.38;;;9.50;99.90;;;;;;5046434;28;20044;-79
2022/01/29 09:08:50;;;;;;;7.03;3.30;;;9.50;99.90;;;;;;5029511;28;20048;-77
2022/01/29 09:11:16;;;;;;;10.45;3.20;;;9.60;99.90;;;;;;5030037;28;20150;-78
2022/01/29 09:13:42;;;;;;;8.75;3.70;;;9.60;99.90;;;;;;5029964;28;20037;-77
2022/01/29 09:16:08;;;;;;;9.90;3.35;;;9.60;99.90;;;;;;5045020;28;20080;-78
2022/01/29 09:18:34;;;;;;;5.75;2.60;;;9.60;99.90;;;;;;5046389;28;20073;-78
2022/01/29 09:21:00;;;;;;;9.68;2.78;;;9.60;99.90;;;;;;5028465;28;20409;-77
2022/01/29 09:23:26;;;;;;;8.07;2.60;;;9.60;99.90;;;;;;5046429;28;20049;-78
2022/01/29 09:25:52;;;;;;;4.88;2.92;;;9.60;99.90;;;;;;5047429;28;20064;-77
2022/01/29 09:28:18;;;;;;;7.95;3.03;;;9.60;99.90;;;;;;5047249;28;20037;-77
2022/01/29 09:30:45;;;;;;;5.75;2.55;;;9.60;99.90;;;;;;5047943;28;20396;-78
2022/01/29 09:33:11;;;;;;;5.15;3.00;;;9.60;99.90;;;;;;5045510;28;20033;-78
2022/01/29 09:35:38;;;;;;;7.10;2.55;;;9.60;99.90;;;;;;5047825;28;20075;-77
2022/01/29 09:38:06;;;;;;;9.35;3.17;;;9.70;99.90;;;;;;5028553;28;20084;-78
2022/01/29 09:40:32;;;;;;;7.88;2.63;;;9.70;99.90;;;;;;5047816;28;20522;-77
2022/01/29 09:42:59;;;;;;;8.02;2.15;;;9.70;99.90;;;;;;5045601;28;20141;-78
2022/01/29 09:45:26;;;;;;;9.40;2.63;;;9.70;99.90;;;;;;5046660;28;20128;-78
2022/01/29 09:48:01;;;;;;;7.70;2.78;;;9.70;99.90;;;;;;5047156;28;20073;-78
2022/01/29 09:50:30;;;;;;;11.38;2.50;;;9.80;99.90;;;;;;5046546;28;20052;-77
2022/01/29 09:52:56;;;;;;;10.40;3.17;;;9.80;99.90;;;;;;5029880;28;20056;-77
2022/01/29 09:55:22;;;;;;;8.23;2.38;;;9.80;99.90;;;;;;5046964;28;20424;-79
2022/01/29 09:57:48;;;;;;;9.48;2.50;;;9.90;99.90;;;;;;5047339;28;20045;-78
2022/01/29 10:00:14;;;;;;;5.32;2.60;;;9.90;99.90;;;;;;5045652;28;20406;-78
2022/01/29 10:02:40;;;;;;;5.88;2.08;;;9.90;99.90;;;;;;5028796;28;20041;-79
2022/01/29 10:05:08;;;;;;;10.43;2.50;;;10.00;99.90;;;;;;5045657;28;20102;-78
2022/01/29 10:07:34;;;;;;;6.68;1.92;;;10.00;99.90;;;;;;5027941;28;20037;-78
2022/01/29 10:10:03;;;;;;;7.80;1.88;;;10.00;99.90;;;;;;5012702;28;20048;-78
2022/01/29 10:12:31;;;;;;;9.07;1.40;;;10.10;99.90;;;;;;5012655;28;20041;-77
2022/01/29 10:15:00;;;;;;;9.50;1.85;;;10.10;99.90;;;;;;5047226;28;20041;-76
2022/01/29 10:17:38;;;;;;;14.45;2.13;;;10.10;99.90;;;;;;5045400;28;20486;-77
2022/01/29 10:20:22;;;;;;;7.20;1.45;;;10.10;99.90;;;;;;5028247;28;20345;-77
2022/01/29 10:22:54;;;;;;;4.22;1.02;;;10.10;99.90;;;;;;5045879;28;20045;-77
2022/01/29 10:25:31;;;;;;;7.43;1.83;;;10.10;99.90;;;;;;5044932;28;20052;-78
2022/01/29 10:28:16;;;;;;;8.13;1.33;;;10.10;99.90;;;;;;5046690;28;20098;-78
2022/01/29 10:30:51;;;;;;;8.95;1.40;;;10.10;99.90;;;;;;5046975;28;20079;-77
2022/01/29 10:33:21;;;;;;;4.25;1.30;;;10.10;99.90;;;;;;5044111;28;20045;-77
2022/01/29 10:35:58;;;;;;;4.80;1.48;;;10.20;99.90;;;;;;5046829;28;20049;-78
2022/01/29 10:38:41;;;;;;;4.75;1.50;;;10.20;99.90;;;;;;5044759;28;20060;-78
2022/01/29 10:41:23;;;;;;;5.22;1.02;;;10.20;99.90;;;;;;5044348;28;20037;-77
2022/01/29 10:44:10;;;;;;;6.05;1.15;;;10.20;99.90;;;;;;5045429;28;20052;-77
2022/01/29 10:46:55;;;;;;;6.60;1.15;;;10.20;99.90;;;;;;5045211;28;20390;-78
2022/01/29 10:49:29;;;;;;;9.32;2.17;;;10.20;99.90;;;;;;5027906;28;20541;-75
2022/01/29 10:51:55;;;;;;;7.60;0.93;;;10.20;99.90;;;;;;5044842;28;20506;-77
2022/01/29 10:54:21;;;;;;;10.07;1.58;;;10.30;99.90;;;;;;5043579;28;20100;-77
2022/01/29 10:56:53;;;;;;;8.15;1.08;;;10.30;99.90;;;;;;5044687;28;20077;-78
2022/01/29 10:59:20;;;;;;;5.40;1.27;;;10.30;99.90;;;;;;5045558;28;20107;-78
2022/01/29 11:01:50;;;;;;;7.43;2.08;;;10.30;99.90;;;;;;5046760;28;20037;-78
2022/01/29 11:04:16;;;;;;;6.82;1.92;;;10.30;99.90;;;;;;5044478;28;20111;-77
2022/01/29 11:06:45;;;;;;;6.53;1.20;;;9.90;99.90;;;;;;5044163;28;20048;-78
2022/01/29 11:09:13;;;;;;;7.13;0.93;;;10.50;99.90;;;;;;5044798;28;20045;-78
2022/01/29 11:11:45;;;;;;;6.57;1.25;;;10.20;99.90;;;;;;5044455;28;20041;-78
2022/01/29 11:14:13;;;;;;;11.07;1.60;;;10.20;99.90;;;;;;5028337;28;20505;-76
2022/01/29 11:16:40;;;;;;;7.65;1.33;;;10.30;99.90;;;;;;5044592;28;20402;-77
2022/01/29 11:19:06;;;;;;;7.63;1.08;;;10.30;99.90;;;;;;5011332;28;20037;-77
2022/01/29 11:21:33;;;;;;;7.05;1.45;;;10.30;99.90;;;;;;5027667;28;20045;-77
2022/01/29 11:23:59;;;;;;;4.57;1.00;;;10.40;99.90;;;;;;5043885;28;20052;-77
2022/01/29 11:26:28;;;;;;;8.85;1.00;;;10.40;99.90;;;;;;5011803;28;20041;-78
2022/01/29 11:29:32;;;;;;;6.57;1.13;;;10.40;99.90;;;;;;5043172;28;20049;-77
2022/01/29 11:32:23;;;;;;;3.35;0.90;;;10.40;99.90;;;;;;5043928;28;20084;-78
2022/01/29 11:35:05;;;;;;;8.75;1.30;;;10.40;99.90;;;;;;5045618;28;20504;-77
2022/01/29 11:37:43;;;;;;;5.43;1.10;;;10.40;99.90;;;;;;5026272;28;20048;-78
2022/01/29 11:40:20;;;;;;;5.50;1.02;;;10.40;99.90;;;;;;5044192;28;20566;-77
2022/01/29 11:42:54;;;;;;;3.08;0.73;;;10.40;99.90;;;;;;5044541;28;20049;-77
2022/01/29 11:45:30;;;;;;;7.30;1.40;;;10.60;99.90;;;;;;5044205;28;20512;-77
2022/01/29 11:47:56;;;;;;;6.13;1.48;;;10.40;99.90;;;;;;5045109;28;20079;-79
2022/01/29 11:50:27;;;;;;;7.10;1.40;;;10.50;99.90;;;;;;5043110;28;20041;-75
2022/01/29 11:52:54;;;;;;;7.25;1.10;;;10.50;99.90;;;;;;5045729;28;20045;-76
2022/01/29 11:55:41;;;;;;;13.10;1.73;;;10.50;99.90;;;;;;5042967;28;20049;-76
2022/01/29 11:58:13;;;;;;;6.82;2.15;;;10.60;99.90;;;;;;5042491;28;20045;-76
2022/01/29 12:00:39;;;;;;;8.57;2.30;;;10.60;99.90;;;;;;5043670;28;20155;-77
2022/01/29 12:03:06;;;;;;;7.47;0.88;;;10.70;99.90;;;;;;5026357;28;20166;-77
2022/01/29 12:06:24;;;;;;;5.13;0.98;;;11.00;99.90;;;;;;5043769;28;20140;-77
2022/01/29 12:09:06;;;;;;;2.85;1.02;;;10.80;99.90;;;;;;5043362;28;20071;-78
2022/01/29 12:11:33;;;;;;;7.67;1.07;;;10.90;99.90;;;;;;5041851;28;20084;-77
2022/01/29 12:14:25;;;;;;;4.75;0.80;;;10.90;99.90;;;;;;5045110;28;20367;-78
2022/01/29 12:16:55;;;;;;;3.00;0.80;;;10.90;99.90;;;;;;5022178;28;20048;-77
2022/01/29 12:19:38;;;;;;;7.82;0.90;;;10.90;99.90;;;;;;5042445;28;20110;-77
2022/01/29 12:22:19;;;;;;;6.95;0.98;;;11.00;99.90;;;;;;5046360;28;20401;-78
2022/01/29 12:24:54;;;;;;;5.40;1.17;;;11.00;99.90;;;;;;5048266;28;20045;-77
2022/01/29 12:27:20;;;;;;;9.32;1.15;;;11.00;99.90;;;;;;5049024;28;20461;-77
2022/01/29 12:29:46;;;;;;;4.38;0.70;;;11.10;99.90;;;;;;5048200;28;20044;-79
2022/01/29 12:32:12;;;;;;;4.60;0.73;;;11.10;99.90;;;;;;5047476;28;20048;-77
2022/01/29 12:34:39;;;;;;;9.27;1.38;;;11.10;99.90;;;;;;5048238;28;20099;-78
2022/01/29 12:37:12;;;;;;;8.98;1.55;;;11.10;99.90;;;;;;5045862;28;20044;-78
2022/01/29 12:39:49;;;;;;;3.83;1.20;;;11.20;99.90;;;;;;5047234;28;20059;-78
2022/01/29 12:45:06;;;;;;;5.75;0.93;;;11.30;99.90;;;;;;5029649;28;20049;-77
2022/01/29 12:47:34;;;;;;;7.53;1.30;;;11.30;99.90;;;;;;5029828;28;20045;-78
2022/01/29 12:49:59;;;;;;;6.93;1.00;;;11.80;99.90;;;;;;5045639;28;20437;-77
2022/01/29 12:52:26;;;;;;;9.27;1.05;;;11.30;99.90;;;;;;5047210;28;20041;-77
2022/01/29 12:54:54;;;;;;;15.70;1.10;;;11.30;99.90;;;;;;5029419;28;20128;-77
2022/01/29 12:57:21;;;;;;;11.77;1.63;;;11.30;99.90;;;;;;5047341;28;20106;-78
2022/01/29 12:59:47;;;;;;;5.65;1.10;;;11.30;99.90;;;;;;5046666;28;20508;-78
2022/01/29 13:02:14;;;;;;;7.88;1.10;;;11.30;99.90;;;;;;5045797;28;20131;-77
2022/01/29 13:04:46;;;;;;;8.43;1.00;;;11.20;99.90;;;;;;5047951;28;20038;-78
2022/01/29 13:07:13;;;;;;;7.85;1.27;;;11.20;99.90;;;;;;5046170;28;20037;-77
2022/01/29 13:09:39;;;;;;;6.32;1.38;;;11.20;99.90;;;;;;5046826;28;20055;-77
2022/01/29 13:12:11;;;;;;;14.85;1.20;;;11.20;99.90;;;;;;5046164;28;20306;-77